Time;durP1;ratioP1;P1;durP2;ratioP2;P2;SDS_P1;SDS_P2;PMS_P1;PMS_P2;Temp;Humidity;BMP_temperature;BMP_pressure;BME280_temperature;BME280_humidity;BME280_pressure;Samples;Min_cycle;Max_cycle;Signal;HPM_P1;HPM_P2
2023/07/30 00:02:16;;;;;;;3.60;1.70;;;;;;;19.26;100.00;98270.54;109565;1251;64096;-77
2023/07/30 00:04:44;;;;;;;2.90;2.10;;;;;;;19.24;100.00;98274.36;109581;1251;60174;-78
2023/07/30 00:07:11;;;;;;;2.20;1.90;;;;;;;19.22;100.00;98274.17;109333;1251;63049;-77
2023/07/30 00:09:38;;;;;;;1.70;1.60;;;;;;;19.23;100.00;98270.70;109517;1251;58851;-77
2023/07/30 00:12:06;;;;;;;1.90;1.70;;;;;;;19.25;100.00;98274.42;109539;1251;58244;-76
2023/07/30 00:14:33;;;;;;;3.10;1.70;;;;;;;19.28;100.00;98274.98;109350;1251;64251;-77
2023/07/30 00:17:00;;;;;;;3.10;1.80;;;;;;;19.30;100.00;98270.23;109329;1251;59548;-77
2023/07/30 00:19:26;;;;;;;1.90;1.60;;;;;;;19.33;100.00;98275.31;109478;1251;62814;-78
2023/07/30 00:21:53;;;;;;;1.70;1.50;;;;;;;19.35;100.00;98280.31;109441;1251;58360;-78
2023/07/30 00:24:19;;;;;;;2.10;1.50;;;;;;;19.36;100.00;98284.88;109563;1251;58249;-78
2023/07/30 00:26:46;;;;;;;2.10;1.80;;;;;;;19.38;100.00;98287.38;109522;1251;58446;-78
2023/07/30 00:29:13;;;;;;;2.30;1.80;;;;;;;19.41;100.00;98289.81;109479;1251;60066;-78
2023/07/30 00:31:39;;;;;;;2.20;1.90;;;;;;;19.44;100.00;98289.16;109335;1251;63838;-78
2023/07/30 00:34:06;;;;;;;3.20;1.80;;;;;;;19.46;100.00;98288.72;109569;1251;58192;-77
2023/07/30 00:36:32;;;;;;;3.00;1.80;;;;;;;19.48;100.00;98290.27;109525;1251;58155;-78
2023/07/30 00:38:58;;;;;;;3.70;2.00;;;;;;;19.50;100.00;98287.92;109582;1251;58325;-78
2023/07/30 00:41:25;;;;;;;2.20;2.00;;;;;;;19.51;100.00;98287.11;109585;1251;58261;-78
2023/07/30 00:43:51;;;;;;;3.00;2.10;;;;;;;19.51;100.00;98292.69;109466;1251;58644;-78
2023/07/30 00:46:18;;;;;;;2.10;1.70;;;;;;;19.52;100.00;98294.33;109510;1251;58102;-78
2023/07/30 00:48:44;;;;;;;2.90;1.80;;;;;;;19.52;100.00;98296.61;109631;1251;58123;-77
2023/07/30 00:51:13;;;;;;;1.80;1.60;;;;;;;19.54;100.00;98299.23;109609;1251;58470;-77
2023/07/30 00:53:40;;;;;;;2.90;1.90;;;;;;;19.55;100.00;98299.48;109519;1251;60187;-78
2023/07/30 00:56:06;;;;;;;1.60;1.50;;;;;;;19.54;100.00;98289.42;109543;1251;64052;-78
2023/07/30 00:58:33;;;;;;;1.70;1.60;;;;;;;19.55;100.00;98287.23;109520;1251;58123;-78
2023/07/30 01:01:00;;;;;;;1.60;1.50;;;;;;;19.55;100.00;98283.23;109589;1251;58248;-78
2023/07/30 01:03:27;;;;;;;2.30;2.10;;;;;;;19.54;100.00;98296.08;109558;1251;64091;-77
2023/07/30 01:05:54;;;;;;;2.10;1.90;;;;;;;19.54;100.00;98300.10;109607;1251;59798;-77
2023/07/30 01:08:20;;;;;;;3.20;2.00;;;;;;;19.54;100.00;98301.18;109593;1251;63850;-77
2023/07/30 01:10:48;;;;;;;2.00;1.40;;;;;;;19.53;100.00;98303.57;109452;1251;58198;-77
2023/07/30 01:13:15;;;;;;;1.90;1.50;;;;;;;19.52;100.00;98306.05;109512;1251;58290;-77
2023/07/30 01:15:42;;;;;;;2.20;1.70;;;;;;;19.51;100.00;98308.88;109561;1251;65361;-77
2023/07/30 01:18:09;;;;;;;2.60;1.70;;;;;;;19.51;100.00;98308.93;109533;1251;60109;-77
2023/07/30 01:20:35;;;;;;;2.80;1.70;;;;;;;19.50;100.00;98312.79;109515;1251;64020;-77
2023/07/30 01:23:02;;;;;;;3.10;1.30;;;;;;;19.50;100.00;98314.44;109549;1251;58239;-77
2023/07/30 01:25:33;;;;;;;2.90;1.50;;;;;;;19.50;100.00;98318.39;109577;1251;58000;-78
2023/07/30 01:28:02;;;;;;;2.40;1.80;;;;;;;19.50;100.00;98317.48;109431;1251;65240;-77
2023/07/30 01:30:35;;;;;;;2.10;1.30;;;;;;;19.50;100.00;98314.95;109522;1251;60290;-78
2023/07/30 01:33:03;;;;;;;2.10;1.70;;;;;;;19.50;100.00;98312.98;109500;1251;64146;-77
2023/07/30 01:35:31;;;;;;;2.30;1.70;;;;;;;19.49;100.00;98309.40;109519;1251;58212;-77
2023/07/30 01:37:58;;;;;;;2.30;1.60;;;;;;;19.49;100.00;98309.27;109503;1251;58113;-78
2023/07/30 01:40:25;;;;;;;2.60;1.80;;;;;;;19.47;100.00;98310.40;109574;1251;64557;-77
2023/07/30 01:42:51;;;;;;;2.10;1.30;;;;;;;19.45;100.00;98306.02;109350;1251;61301;-77
2023/07/30 01:45:18;;;;;;;2.40;1.40;;;;;;;19.43;100.00;98308.22;109540;1251;64042;-78
2023/07/30 01:47:44;;;;;;;1.70;1.60;;;;;;;19.40;100.00;98311.95;109543;1251;59014;-78
2023/07/30 01:50:11;;;;;;;1.20;1.10;;;;;;;19.36;100.00;98318.02;109629;1251;58206;-78
2023/07/30 01:52:37;;;;;;;2.50;1.70;;;;;;;19.32;100.00;98318.27;109300;1251;58226;-78
2023/07/30 01:55:04;;;;;;;1.70;1.60;;;;;;;19.27;100.00;98322.04;109610;1251;60142;-78
2023/07/30 01:57:31;;;;;;;1.90;1.50;;;;;;;19.25;100.00;98324.14;109577;1251;64054;-77
2023/07/30 01:59:57;;;;;;;1.60;1.50;;;;;;;19.21;100.00;98327.66;109417;1251;58322;-77
2023/07/30 02:02:24;;;;;;;2.30;1.50;;;;;;;19.18;100.00;98330.71;109545;1251;58090;-78
2023/07/30 02:04:50;;;;;;;3.40;1.60;;;;;;;19.15;100.00;98328.73;109569;1251;58600;-78
2023/07/30 02:07:17;;;;;;;1.30;1.00;;;;;;;19.11;100.00;98324.83;109540;1251;58226;-77
2023/07/30 02:09:43;;;;;;;2.20;1.40;;;;;;;19.06;100.00;98313.09;109341;1251;58370;-78
2023/07/30 02:12:11;;;;;;;1.40;1.30;;;;;;;19.02;100.00;98311.66;109557;1251;58910;-77
2023/07/30 02:14:37;;;;;;;4.10;1.50;;;;;;;18.95;100.00;98312.35;109552;1251;58159;-77
2023/07/30 02:17:04;;;;;;;3.20;1.30;;;;;;;18.90;100.00;98317.86;109542;1251;58528;-78
2023/07/30 02:19:30;;;;;;;1.70;1.40;;;;;;;18.83;100.00;98318.38;109361;1251;60307;-78
2023/07/30 02:21:57;;;;;;;1.70;1.40;;;;;;;18.77;100.00;98314.41;109584;1251;58263;-78
2023/07/30 02:24:23;;;;;;;2.00;1.20;;;;;;;18.70;100.00;98316.21;109509;1251;58352;-78
2023/07/30 02:26:50;;;;;;;1.90;1.40;;;;;;;18.64;100.00;98311.67;109546;1251;58159;-77
2023/07/30 02:29:16;;;;;;;1.60;1.40;;;;;;;18.59;100.00;98314.44;109544;1251;58496;-77
2023/07/30 02:31:43;;;;;;;1.70;1.60;;;;;;;18.54;100.00;98312.08;109518;1251;58249;-77
2023/07/30 02:34:09;;;;;;;2.20;2.00;;;;;;;18.50;100.00;98314.31;109312;1251;58261;-78
2023/07/30 02:36:36;;;;;;;2.90;1.70;;;;;;;18.48;100.00;98323.19;109508;1251;58226;-77
2023/07/30 02:39:02;;;;;;;2.40;2.00;;;;;;;18.46;100.00;98327.02;109559;1251;58212;-78
2023/07/30 02:41:29;;;;;;;3.90;2.40;;;;;;;18.43;100.00;98331.27;109508;1251;63668;-78
2023/07/30 02:43:55;;;;;;;3.50;2.20;;;;;;;18.40;100.00;98336.47;109562;1251;58217;-79
2023/07/30 02:46:22;;;;;;;2.40;1.50;;;;;;;18.35;100.00;98335.36;109576;1251;58217;-78
2023/07/30 02:48:48;;;;;;;4.30;1.70;;;;;;;18.32;100.00;98337.11;109519;1251;58195;-78
2023/07/30 02:51:15;;;;;;;2.60;1.80;;;;;;;18.29;100.00;98344.89;109546;1251;58180;-78
2023/07/30 02:53:44;;;;;;;3.80;2.10;;;;;;;18.25;100.00;98346.55;109458;1251;58248;-78
2023/07/30 02:56:10;;;;;;;2.00;1.80;;;;;;;18.22;100.00;98346.21;109457;1251;59569;-78
2023/07/30 02:58:37;;;;;;;3.30;1.80;;;;;;;18.18;100.00;98348.88;109520;1251;58240;-78
2023/07/30 03:01:07;;;;;;;2.30;2.00;;;;;;;18.17;100.00;98348.83;109503;1251;58203;-78
2023/07/30 03:03:34;;;;;;;2.50;2.00;;;;;;;18.14;100.00;98351.28;109413;1251;58231;-77
2023/07/30 03:06:00;;;;;;;3.20;1.60;;;;;;;18.13;100.00;98352.48;109575;1251;64091;-78
2023/07/30 03:08:27;;;;;;;2.20;2.10;;;;;;;18.14;100.00;98358.06;109548;1251;58701;-78
2023/07/30 03:10:53;;;;;;;2.90;1.60;;;;;;;18.14;100.00;98357.80;109544;1251;58182;-78
2023/07/30 03:13:21;;;;;;;1.80;1.70;;;;;;;18.14;100.00;98360.27;109498;1251;58582;-78
2023/07/30 03:15:47;;;;;;;2.10;1.80;;;;;;;18.14;100.00;98359.23;109520;1251;58439;-77
2023/07/30 03:18:14;;;;;;;2.70;1.70;;;;;;;18.16;100.00;98362.11;109558;1251;58770;-78
2023/07/30 03:20:41;;;;;;;2.00;1.80;;;;;;;18.17;100.00;98361.41;109538;1251;60078;-79
2023/07/30 03:23:07;;;;;;;3.30;1.90;;;;;;;18.17;100.00;98366.61;109511;1251;62900;-78
2023/07/30 03:25:34;;;;;;;2.40;1.60;;;;;;;18.18;100.00;98367.23;109536;1251;58179;-78
2023/07/30 03:28:00;;;;;;;2.40;1.80;;;;;;;18.19;100.00;98367.88;109535;1251;58173;-78
2023/07/30 03:30:27;;;;;;;4.50;1.90;;;;;;;18.19;100.00;98372.48;109541;1251;58449;-78
2023/07/30 03:32:53;;;;;;;2.40;2.00;;;;;;;18.21;100.00;98374.27;109539;1251;59109;-78
2023/07/30 03:35:20;;;;;;;2.60;2.00;;;;;;;18.25;100.00;98380.78;109589;1251;65323;-78
2023/07/30 03:37:46;;;;;;;2.10;1.80;;;;;;;18.27;100.00;98383.39;109518;1251;58209;-78
2023/07/30 03:40:13;;;;;;;3.10;1.50;;;;;;;18.27;100.00;98383.90;109521;1251;58204;-78
2023/07/30 03:42:39;;;;;;;3.30;1.70;;;;;;;18.28;100.00;98384.14;109558;1251;64062;-78
2023/07/30 03:45:06;;;;;;;2.40;1.70;;;;;;;18.31;100.00;98387.38;109607;1251;58186;-78
2023/07/30 03:47:33;;;;;;;3.00;1.60;;;;;;;18.35;100.00;98387.37;109515;1251;62791;-78
2023/07/30 03:49:59;;;;;;;3.20;1.80;;;;;;;18.40;100.00;98392.45;109550;1251;58184;-78
2023/07/30 03:52:26;;;;;;;1.70;1.60;;;;;;;18.43;100.00;98389.69;109573;1251;58298;-78
2023/07/30 03:54:52;;;;;;;1.90;1.50;;;;;;;18.48;100.00;98388.27;109540;1251;58514;-77
2023/07/30 03:57:19;;;;;;;4.40;3.20;;;;;;;18.55;100.00;98383.89;109571;1251;59092;-76
2023/07/30 03:59:45;;;;;;;4.20;2.30;;;;;;;18.62;100.00;98380.95;109562;1251;58109;-77
2023/07/30 04:02:15;;;;;;;2.20;2.00;;;;;;;18.69;100.00;98380.05;109519;1251;58408;-77
2023/07/30 04:04:48;;;;;;;3.30;2.30;;;;;;;18.78;100.00;98382.50;109571;1251;58242;-77
2023/07/30 04:07:14;;;;;;;3.80;2.10;;;;;;;18.91;100.00;98380.02;109576;1251;65145;-77
2023/07/30 04:09:41;;;;;;;2.00;1.80;;;;;;;19.10;100.00;98380.36;109573;1251;59059;-77
2023/07/30 04:12:07;;;;;;;2.40;1.60;;;;;;;19.31;100.00;98383.59;109601;1251;58221;-77
2023/07/30 04:14:34;;;;;;;4.10;2.00;;;;;;;19.44;100.00;98385.40;109541;1251;58641;-76
2023/07/30 04:17:00;;;;;;;3.50;1.80;;;;;;;19.52;100.00;98390.17;109520;1251;58203;-78
2023/07/30 04:19:27;;;;;;;1.90;1.70;;;;;;;19.59;100.00;98397.41;109561;1251;58530;-77
2023/07/30 04:21:53;;;;;;;2.90;1.90;;;;;;;19.63;100.00;98403.77;109546;1251;58250;-77
2023/07/30 04:24:20;;;;;;;1.60;1.50;;;;;;;19.65;100.00;98407.33;109544;1251;58261;-77
2023/07/30 04:26:46;;;;;;;1.30;1.20;;;;;;;19.67;100.00;98405.62;109534;1251;58145;-77
2023/07/30 04:29:14;;;;;;;2.10;1.50;;;;;;;19.72;100.00;98409.02;109562;1251;58138;-78
2023/07/30 04:31:40;;;;;;;2.20;1.50;;;;;;;19.76;100.00;98412.41;109585;1251;65322;-77
2023/07/30 04:34:06;;;;;;;2.10;1.20;;;;;;;19.79;100.00;98412.58;109556;1251;58250;-78
2023/07/30 04:36:33;;;;;;;2.00;1.30;;;;;;;19.82;100.00;98413.81;109592;1251;58986;-77
2023/07/30 04:38:59;;;;;;;2.20;1.50;;;;;;;19.85;100.00;98416.60;109510;1251;58170;-78
2023/07/30 04:41:26;;;;;;;1.70;1.40;;;;;;;19.88;100.00;98419.30;109496;1251;58154;-78
2023/07/30 04:43:52;;;;;;;2.70;1.30;;;;;;;19.91;100.00;98417.86;109574;1251;58270;-76
2023/07/30 04:46:19;;;;;;;2.70;1.40;;;;;;;19.97;100.00;98413.39;109556;1251;58171;-77
2023/07/30 04:48:45;;;;;;;2.40;1.50;;;;;;;20.06;100.00;98410.16;109491;1251;58176;-77
2023/07/30 04:51:11;;;;;;;2.10;1.30;;;;;;;20.17;100.00;98409.33;109538;1251;58177;-76
2023/07/30 04:53:38;;;;;;;3.60;2.00;;;;;;;20.27;100.00;98407.41;109547;1251;58237;-77
2023/07/30 04:56:04;;;;;;;1.90;1.80;;;;;;;20.44;100.00;98407.60;109558;1251;58609;-78
2023/07/30 04:58:31;;;;;;;1.90;1.60;;;;;;;20.58;100.00;98411.38;109531;1251;58273;-77
2023/07/30 05:00:57;;;;;;;3.30;1.70;;;;;;;20.70;100.00;98408.31;109429;1251;58272;-76
2023/07/30 05:03:24;;;;;;;4.40;1.80;;;;;;;20.90;100.00;98409.94;109581;1251;58179;-77
2023/07/30 05:05:50;;;;;;;2.40;1.80;;;;;;;21.00;100.00;98415.11;109556;1251;58221;-78
2023/07/30 05:08:17;;;;;;;3.30;1.80;;;;;;;21.08;100.00;98418.07;109613;1251;58142;-77
2023/07/30 05:10:43;;;;;;;3.20;2.00;;;;;;;21.19;100.00;98421.95;109519;1251;58220;-76
2023/07/30 05:13:10;;;;;;;4.10;1.90;;;;;;;21.38;100.00;98419.91;109573;1251;58275;-77
2023/07/30 05:15:36;;;;;;;3.60;2.60;;;;;;;21.76;100.00;98426.21;109549;1251;58231;-78
2023/07/30 05:18:03;;;;;;;5.60;3.20;;;;;;;22.20;100.00;98430.27;109564;1251;58076;-78
2023/07/30 05:20:29;;;;;;;6.70;3.20;;;;;;;22.44;100.00;98432.35;109548;1251;58564;-77
2023/07/30 05:22:56;;;;;;;5.00;3.40;;;;;;;22.79;100.00;98429.59;109583;1251;58275;-77
2023/07/30 05:25:23;;;;;;;6.10;3.90;;;;;;;23.03;100.00;98437.84;109492;1251;58412;-77
2023/07/30 05:27:49;;;;;;;5.00;3.40;;;;;;;23.32;100.00;98441.73;109497;1251;58217;-77
2023/07/30 05:30:16;;;;;;;5.80;3.90;;;;;;;23.49;100.00;98434.48;109527;1251;58231;-78
2023/07/30 05:32:42;;;;;;;5.20;3.40;;;;;;;23.82;100.00;98432.73;109567;1251;58304;-77
2023/07/30 05:35:08;;;;;;;6.30;3.40;;;;;;;24.27;100.00;98438.08;109606;1251;58160;-77
2023/07/30 05:37:35;;;;;;;4.00;3.30;;;;;;;24.63;100.00;98443.79;109513;1251;58246;-78
2023/07/30 05:40:03;;;;;;;3.50;3.20;;;;;;;24.74;100.00;98444.57;109589;1251;58168;-77
2023/07/30 05:42:29;;;;;;;3.80;2.90;;;;;;;24.94;100.00;98438.85;109356;1251;58252;-78
2023/07/30 05:44:55;;;;;;;3.30;2.80;;;;;;;25.31;100.00;98438.19;109546;1251;58523;-77
2023/07/30 05:47:22;;;;;;;4.40;3.00;;;;;;;25.50;100.00;98440.86;109587;1251;58206;-78
2023/07/30 05:49:48;;;;;;;4.30;2.50;;;;;;;25.63;100.00;98439.29;109498;1251;62496;-78
2023/07/30 05:52:15;;;;;;;2.60;2.20;;;;;;;25.76;100.00;98441.35;109505;1251;58157;-77
2023/07/30 05:54:41;;;;;;;3.80;2.60;;;;;;;25.75;100.00;98445.19;109428;1251;58125;-78
2023/07/30 05:57:08;;;;;;;3.80;2.30;;;;;;;25.94;100.00;98448.21;109575;1251;65331;-77
2023/07/30 05:59:34;;;;;;;2.70;2.40;;;;;;;26.15;100.00;98449.32;109560;1251;60236;-77
2023/07/30 06:02:03;;;;;;;3.00;2.10;;;;;;;26.39;100.00;98442.40;109597;1251;64071;-77
2023/07/30 06:04:30;;;;;;;4.50;2.40;;;;;;;26.38;100.00;98440.65;109429;1251;58246;-76
2023/07/30 06:06:59;;;;;;;3.10;2.40;;;;;;;26.43;100.00;98440.02;109585;1251;58185;-76
2023/07/30 06:09:26;;;;;;;2.80;2.20;;;;;;;26.67;100.00;98433.31;109534;1251;65067;-77
2023/07/30 06:11:53;;;;;;;3.30;2.30;;;;;;;26.96;100.00;98430.04;109606;1251;60173;-77
2023/07/30 06:14:19;;;;;;;4.20;2.50;;;;;;;27.18;100.00;98437.51;109572;1251;63746;-77
2023/07/30 06:16:46;;;;;;;3.60;2.00;;;;;;;27.31;100.00;98440.43;109566;1251;58153;-76
2023/07/30 06:19:12;;;;;;;2.10;1.60;;;;;;;27.39;100.00;98434.89;109608;1251;58605;-77
2023/07/30 06:21:39;;;;;;;2.60;1.60;;;;;;;27.31;98.77;98436.14;109627;1251;58118;-78
2023/07/30 06:24:05;;;;;;;2.00;1.80;;;;;;;27.03;96.81;98437.18;109650;1251;58242;-80
2023/07/30 06:26:32;;;;;;;2.80;1.90;;;;;;;26.84;97.11;98441.24;109636;1251;58208;-78
2023/07/30 06:28:59;;;;;;;2.20;1.60;;;;;;;26.81;97.17;98441.77;109628;1251;58209;-78
2023/07/30 06:31:25;;;;;;;3.00;1.90;;;;;;;26.81;96.33;98440.25;109713;1251;58215;-80
2023/07/30 06:33:51;;;;;;;3.30;2.00;;;;;;;26.69;96.33;98440.75;109925;1251;58355;-80
2023/07/30 13:47:32;;;;;;;1.70;1.60;;;;;;;27.50;78.28;98375.11;103534;1280;616962;-79
2023/07/30 13:49:58;;;;;;;1.80;1.70;;;;;;;27.67;78.04;98374.13;105073;1264;59363;-81
2023/07/30 13:52:24;;;;;;;2.60;1.60;;;;;;;27.79;77.66;98377.79;105101;1266;59369;-81
2023/07/30 13:54:50;;;;;;;1.60;1.50;;;;;;;27.93;77.83;98374.11;105131;1264;59816;-79
2023/07/30 13:57:24;;;;;;;1.50;1.40;;;;;;;28.15;78.32;98372.38;104938;1264;59382;-79
2023/07/30 13:59:54;;;;;;;1.70;1.60;;;;;;;28.35;77.55;98376.48;104695;1261;402268;-80
2023/07/30 14:02:20;;;;;;;1.80;1.70;;;;;;;28.47;77.17;98377.77;105000;1261;59266;-80
2023/07/30 14:04:47;;;;;;;2.00;1.50;;;;;;;28.51;76.27;98379.03;105246;1264;59393;-79
2023/07/30 14:07:12;;;;;;;2.50;1.60;;;;;;;28.54;75.30;98381.13;105273;1263;59362;-81
2023/07/30 14:09:38;;;;;;;1.60;1.50;;;;;;;28.60;75.58;98378.39;105254;1263;59364;-80
2023/07/30 14:12:05;;;;;;;1.70;1.60;;;;;;;28.64;75.39;98374.70;105282;1264;59742;-79
2023/07/30 14:14:31;;;;;;;2.30;1.40;;;;;;;28.66;75.32;98372.61;105278;1261;59742;-80
2023/07/30 14:16:57;;;;;;;1.60;1.50;;;;;;;28.64;75.21;98367.91;105272;1263;59841;-79
2023/07/30 14:19:24;;;;;;;1.30;1.30;;;;;;;28.57;74.61;98362.66;105327;1260;59732;-80
2023/07/30 14:21:49;;;;;;;1.90;1.70;;;;;;;28.41;73.49;98362.74;105276;1260;59676;-78
2023/07/30 14:24:15;;;;;;;1.50;1.40;;;;;;;28.30;73.37;98357.66;105254;1261;59707;-78
2023/07/30 14:26:42;;;;;;;1.60;1.30;;;;;;;28.29;74.06;98353.63;105233;1261;59623;-79
2023/07/30 14:29:07;;;;;;;1.20;1.20;;;;;;;28.38;73.62;98353.58;105286;1261;64876;-79
2023/07/30 14:31:33;;;;;;;1.60;1.40;;;;;;;28.48;73.20;98352.88;105255;1264;59736;-79
2023/07/30 14:33:59;;;;;;;1.90;1.80;;;;;;;28.57;72.54;98353.67;105725;1254;59714;-78
2023/07/30 14:36:25;;;;;;;1.70;1.60;;;;;;;28.46;71.96;98355.09;105711;1254;59652;-80
2023/07/30 14:38:51;;;;;;;2.00;1.60;;;;;;;28.44;72.20;98350.65;105771;1257;59801;-80
2023/07/30 14:41:17;;;;;;;1.80;1.30;;;;;;;28.34;71.56;98351.23;105720;1257;59630;-79
2023/07/30 14:43:43;;;;;;;1.70;1.60;;;;;;;28.10;70.88;98341.27;105762;1255;59681;-80
2023/07/30 14:46:13;;;;;;;2.30;1.60;;;;;;;27.82;72.08;98340.63;105751;1257;59724;-79
2023/07/30 14:48:43;;;;;;;1.80;1.60;;;;;;;27.58;72.40;98340.73;105732;1257;59576;-80
2023/07/30 14:51:10;;;;;;;2.00;1.80;;;;;;;27.37;73.38;98341.36;105757;1257;64336;-80
2023/07/30 14:53:36;;;;;;;1.80;1.50;;;;;;;27.25;74.01;98340.06;105760;1254;59627;-80
2023/07/30 14:56:02;;;;;;;1.80;1.70;;;;;;;27.16;74.19;98338.77;105737;1257;59735;-80
2023/07/30 14:58:28;;;;;;;2.60;1.80;;;;;;;27.02;73.63;98341.52;105704;1257;60143;-79
2023/07/30 15:00:54;;;;;;;1.80;1.70;;;;;;;26.92;73.83;98341.57;105457;1254;59733;-78
2023/07/30 15:03:20;;;;;;;1.90;1.60;;;;;;;26.86;74.34;98341.33;105722;1257;59659;-79
2023/07/30 15:05:46;;;;;;;1.30;1.20;;;;;;;26.86;74.72;98339.48;105753;1257;59648;-78
2023/07/30 15:08:12;;;;;;;1.70;1.60;;;;;;;26.85;75.10;98341.30;105509;1255;59701;-80
2023/07/30 15:10:39;;;;;;;1.80;1.50;;;;;;;26.87;75.45;98340.89;105750;1254;59656;-80
2023/07/30 15:13:04;;;;;;;2.20;1.70;;;;;;;26.95;75.59;98341.11;105779;1254;59650;-80
2023/07/30 15:15:30;;;;;;;1.50;1.40;;;;;;;27.05;76.13;98339.63;105877;1254;59653;-79
2023/07/30 15:17:57;;;;;;;1.60;1.50;;;;;;;27.18;76.31;98334.69;105779;1255;63401;-78
2023/07/30 15:20:23;;;;;;;1.70;1.60;;;;;;;27.23;76.07;98331.74;105775;1254;59617;-78
2023/07/30 15:22:48;;;;;;;3.40;1.90;;;;;;;27.19;76.52;98329.85;105833;1254;59736;-78
2023/07/30 15:25:14;;;;;;;1.60;1.50;;;;;;;27.16;76.53;98328.73;105799;1254;59758;-80
2023/07/30 15:27:40;;;;;;;1.80;1.70;;;;;;;27.20;76.18;98328.53;105711;1254;59758;-82
2023/07/30 15:30:07;;;;;;;1.80;1.40;;;;;;;27.23;75.66;98326.44;105784;1257;59742;-79
2023/07/30 15:32:41;;;;;;;1.80;1.70;;;;;;;27.23;75.03;98326.56;105818;1257;59662;-78
2023/07/30 15:35:07;;;;;;;2.80;2.00;;;;;;;27.21;74.95;98324.91;106088;1252;59717;-79
2023/07/30 15:37:33;;;;;;;4.10;1.50;;;;;;;27.13;74.15;98323.83;106255;1251;59739;-79
2023/07/30 15:40:00;;;;;;;1.90;1.80;;;;;;;26.97;74.28;98316.58;106230;1251;59662;-79
2023/07/30 15:42:26;;;;;;;2.40;1.40;;;;;;;26.86;74.39;98316.08;105810;1249;59692;-82
2023/07/30 15:44:51;;;;;;;2.80;1.50;;;;;;;26.78;75.24;98316.07;106134;1254;59672;-79
2023/07/30 15:47:18;;;;;;;1.80;1.60;;;;;;;26.72;75.80;98316.33;106084;1253;59310;-79
2023/07/30 15:49:44;;;;;;;2.20;1.70;;;;;;;26.74;76.31;98314.45;105778;1259;59551;-80
2023/07/30 15:52:10;;;;;;;2.20;1.80;;;;;;;26.68;76.43;98315.90;105941;1251;59733;-79
2023/07/30 15:54:39;;;;;;;5.00;1.70;;;;;;;26.51;76.66;98315.56;105778;1257;59860;-79
2023/07/30 15:57:07;;;;;;;1.70;1.60;;;;;;;26.38;77.47;98316.73;106106;1252;59706;-79
2023/07/30 15:59:34;;;;;;;4.50;1.70;;;;;;;26.34;77.91;98320.16;106045;1251;60319;-79
2023/07/30 16:02:00;;;;;;;2.00;1.80;;;;;;;26.29;77.83;98322.94;106091;1253;72175;-79
2023/07/30 16:04:26;;;;;;;1.50;1.40;;;;;;;26.21;77.65;98325.08;106106;1252;59739;-79
2023/07/30 16:06:57;;;;;;;1.40;1.30;;;;;;;26.15;77.61;98325.89;106108;1253;59726;-79
2023/07/30 16:09:22;;;;;;;1.90;1.50;;;;;;;26.05;77.19;98323.83;106074;1251;59611;-79
2023/07/30 16:11:48;;;;;;;1.60;1.50;;;;;;;25.99;77.58;98329.46;106018;1251;59835;-79
2023/07/30 16:14:14;;;;;;;4.70;2.70;;;;;;;25.90;77.87;98332.14;106104;1251;59569;-78
2023/07/30 16:16:44;;;;;;;1.70;1.60;;;;;;;25.84;78.37;98333.67;106066;1251;59679;-78
2023/07/30 16:19:13;;;;;;;2.20;1.70;;;;;;;25.77;78.98;98335.86;106110;1253;63728;-78
2023/07/30 16:21:40;;;;;;;2.60;2.20;;;;;;;25.73;79.78;98337.73;106079;1250;59643;-79
2023/07/30 16:24:07;;;;;;;2.90;2.00;;;;;;;25.71;80.26;98333.38;106052;1253;59621;-79
2023/07/30 16:26:33;;;;;;;2.00;1.90;;;;;;;25.62;80.78;98343.11;106138;1253;65062;-78
2023/07/30 16:28:59;;;;;;;2.30;2.10;;;;;;;25.53;81.40;98350.41;106073;1250;59646;-79
2023/07/30 16:31:25;;;;;;;2.40;1.90;;;;;;;25.36;81.77;98351.58;106108;1253;59681;-78
2023/07/30 16:33:52;;;;;;;2.50;2.30;;;;;;;25.20;82.00;98352.23;106142;1252;59612;-79
2023/07/30 16:36:17;;;;;;;2.60;2.20;;;;;;;25.16;82.32;98349.69;106141;1251;59747;-79
2023/07/30 16:38:43;;;;;;;2.10;1.80;;;;;;;25.13;83.01;98351.34;106147;1251;59696;-80
2023/07/30 16:41:09;;;;;;;2.30;2.10;;;;;;;25.03;84.06;98352.19;106122;1252;59723;-77
2023/07/30 16:43:35;;;;;;;2.70;2.50;;;;;;;24.85;85.01;98354.96;105778;1259;59736;-79
2023/07/30 16:55:16;;;;;;;2.70;2.50;;;;;;;24.20;89.64;98364.95;102565;1292;600551;-79
2023/07/30 16:57:43;;;;;;;2.60;2.40;;;;;;;24.12;90.32;98364.35;105028;1264;59260;-79
2023/07/30 17:00:10;;;;;;;3.50;2.60;;;;;;;24.06;91.18;98362.88;105044;1267;59164;-79
2023/07/30 17:02:36;;;;;;;5.90;3.00;;;;;;;24.00;91.93;98363.15;104739;1264;63031;-79
2023/07/30 17:05:04;;;;;;;2.80;2.50;;;;;;;23.94;92.53;98366.94;104709;1272;59354;-79
2023/07/30 17:07:31;;;;;;;3.70;2.40;;;;;;;23.87;93.15;98369.92;105014;1264;64181;-79
2023/07/30 17:09:58;;;;;;;2.60;2.30;;;;;;;23.93;93.97;98371.38;105081;1262;167827;-79
2023/07/30 17:12:25;;;;;;;3.20;2.20;;;;;;;24.03;93.53;98368.55;105283;1261;59387;-79
2023/07/30 17:14:52;;;;;;;2.80;2.10;;;;;;;23.94;92.72;98372.38;105296;1266;64368;-79
2023/07/30 17:17:55;;;;;;;1.90;1.80;;;;;;;23.81;92.31;98369.39;102170;1295;607764;-79
2023/07/30 17:20:20;;;;;;;2.80;1.80;;;;;;;23.61;91.93;98376.89;105165;1268;59353;-81
2023/07/30 17:22:46;;;;;;;3.00;1.90;;;;;;;23.47;91.64;98377.73;105289;1267;59278;-78
2023/07/30 17:25:12;;;;;;;1.90;1.80;;;;;;;23.36;91.81;98379.14;105322;1271;59332;-79
2023/07/30 17:27:38;;;;;;;2.20;2.00;;;;;;;23.28;91.86;98384.23;105299;1269;59365;-79
2023/07/30 17:30:06;;;;;;;3.70;2.00;;;;;;;23.21;92.00;98380.63;104390;1264;1190187;-80
2023/07/30 17:32:33;;;;;;;3.80;2.10;;;;;;;23.17;92.27;98381.60;105295;1268;59453;-78
2023/07/30 17:34:59;;;;;;;2.70;1.80;;;;;;;23.14;92.17;98382.51;105417;1264;59373;-79
2023/07/30 17:37:25;;;;;;;4.70;1.80;;;;;;;23.12;92.21;98387.98;105625;1263;59383;-79
2023/07/30 17:39:50;;;;;;;2.10;2.00;;;;;;;23.13;92.56;98393.20;105694;1259;59401;-79
2023/07/30 17:42:16;;;;;;;2.80;1.80;;;;;;;23.27;92.89;98396.35;105666;1257;60084;-79
2023/07/30 17:44:44;;;;;;;3.10;2.10;;;;;;;23.51;93.12;98397.30;105638;1258;60497;-79
2023/07/30 17:47:10;;;;;;;3.30;2.30;;;;;;;23.58;92.80;98402.65;105408;1265;65056;-79
2023/07/30 17:49:35;;;;;;;4.30;2.20;;;;;;;23.57;93.19;98403.61;105621;1261;59759;-79
2023/07/30 17:52:02;;;;;;;2.50;2.30;;;;;;;23.71;93.23;98403.66;105703;1257;59852;-80
2023/07/30 17:54:28;;;;;;;2.80;2.40;;;;;;;23.78;93.06;98405.52;105244;1263;59673;-79
2023/07/30 17:56:54;;;;;;;4.80;2.40;;;;;;;23.64;92.93;98403.95;105344;1257;59786;-79
2023/07/30 17:59:21;;;;;;;2.70;2.40;;;;;;;23.45;93.39;98404.46;105635;1263;59676;-80
2023/07/30 18:01:47;;;;;;;3.20;2.10;;;;;;;23.29;93.74;98410.42;105678;1258;59843;-80
2023/07/30 18:04:13;;;;;;;2.50;2.30;;;;;;;23.12;94.18;98419.84;105663;1261;59820;-80
2023/07/30 18:06:39;;;;;;;2.40;2.20;;;;;;;22.95;94.59;98423.27;105437;1262;59756;-79
2023/07/30 18:09:04;;;;;;;4.60;2.40;;;;;;;22.81;95.26;98430.86;105693;1262;60233;-79
2023/07/30 18:11:30;;;;;;;2.30;2.00;;;;;;;22.65;95.50;98435.15;105644;1261;60299;-79
2023/07/30 18:13:56;;;;;;;2.20;2.00;;;;;;;22.53;95.77;98440.36;105536;1259;59745;-79
2023/07/30 18:16:22;;;;;;;3.50;2.00;;;;;;;22.41;96.23;98446.17;105617;1262;59632;-79
2023/07/30 18:18:48;;;;;;;2.00;1.70;;;;;;;22.32;96.63;98443.31;105662;1258;59696;-79
2023/07/30 18:21:14;;;;;;;2.70;2.20;;;;;;;22.25;96.77;98439.11;105647;1258;59930;-80
2023/07/30 18:23:40;;;;;;;2.70;2.10;;;;;;;22.19;97.21;98441.27;105626;1262;59667;-79
2023/07/30 18:26:06;;;;;;;2.20;2.00;;;;;;;22.13;97.66;98443.67;105749;1268;59663;-79
2023/07/30 18:28:32;;;;;;;3.20;2.10;;;;;;;22.05;97.91;98443.34;105598;1264;59708;-80
2023/07/30 18:31:04;;;;;;;3.40;1.90;;;;;;;22.00;98.26;98442.53;105672;1258;59675;-78
2023/07/30 18:33:30;;;;;;;2.60;2.00;;;;;;;21.98;98.61;98444.66;105429;1267;59774;-79
2023/07/30 18:35:59;;;;;;;3.00;1.90;;;;;;;21.95;99.07;98444.49;105408;1267;59929;-79
2023/07/30 18:38:26;;;;;;;2.00;1.80;;;;;;;21.90;99.37;98443.36;105355;1266;59831;-81